createdAt,value
2023-09-13T00:02:17.490Z,3.33
2023-09-13T00:04:44.427Z,4.90
2023-09-13T00:07:12.221Z,4.43
2023-09-13T00:09:42.537Z,5.10
2023-09-13T00:12:09.766Z,4.80
2023-09-13T00:14:37.684Z,7.15
2023-09-13T00:17:04.424Z,4.15
2023-09-13T00:19:31.644Z,4.72
2023-09-13T00:21:58.713Z,4.25
2023-09-13T00:24:25.460Z,7.40
2023-09-13T00:26:51.959Z,4.28
2023-09-13T00:29:18.891Z,5.13
2023-09-13T00:31:45.724Z,4.85
2023-09-13T00:34:12.338Z,7.22
2023-09-13T00:36:38.846Z,5.85
2023-09-13T00:39:06.705Z,4.30
2023-09-13T00:41:33.492Z,4.40
2023-09-13T00:44:00.687Z,4.95
2023-09-13T00:46:29.239Z,4.75
2023-09-13T00:48:56.930Z,5.55
2023-09-13T00:51:23.688Z,4.85
2023-09-13T00:53:50.336Z,6.13
2023-09-13T00:56:17.957Z,5.63
2023-09-13T00:58:45.246Z,4.65
2023-09-13T01:01:13.827Z,7.53
2023-09-13T01:03:42.470Z,5.60
2023-09-13T01:06:10.692Z,6.35
2023-09-13T01:08:40.901Z,5.40
2023-09-13T01:11:08.139Z,4.65
2023-09-13T01:13:35.274Z,6.65
2023-09-13T01:16:15.714Z,5.82
2023-09-13T01:19:00.618Z,5.80
2023-09-13T01:21:53.771Z,6.28
2023-09-13T01:24:40.777Z,5.05
2023-09-13T01:27:16.314Z,4.75
2023-09-13T01:29:45.215Z,6.00
2023-09-13T01:32:11.955Z,5.53
2023-09-13T01:34:38.482Z,5.55
2023-09-13T01:37:06.062Z,4.43
2023-09-13T01:39:32.625Z,4.53
2023-09-13T01:42:09.010Z,5.45
2023-09-13T01:44:41.389Z,4.43
2023-09-13T01:47:09.247Z,5.03
2023-09-13T01:49:37.573Z,4.25
2023-09-13T01:52:05.864Z,6.65
2023-09-13T01:54:36.568Z,5.38
2023-09-13T01:57:03.927Z,6.30
2023-09-13T01:59:33.861Z,6.15
2023-09-13T02:02:00.619Z,5.22
2023-09-13T02:04:32.949Z,6.05
2023-09-13T02:07:00.818Z,6.03
2023-09-13T02:09:27.555Z,4.95
2023-09-13T02:11:54.055Z,5.90
2023-09-13T02:14:20.683Z,4.53
2023-09-13T02:16:47.528Z,5.85
2023-09-13T02:19:14.263Z,4.72
2023-09-13T02:21:42.212Z,4.80
2023-09-13T02:24:08.933Z,6.13
2023-09-13T02:26:36.368Z,5.53
2023-09-13T02:29:14.082Z,5.28
2023-09-13T02:31:40.759Z,7.80
2023-09-13T02:34:07.361Z,6.22
2023-09-13T02:36:33.879Z,6.78
2023-09-13T02:39:00.870Z,6.93
2023-09-13T02:41:27.402Z,7.70
2023-09-13T02:43:54.020Z,7.75
2023-09-13T02:46:20.628Z,7.97
2023-09-13T02:48:47.333Z,8.15
2023-09-13T02:51:15.690Z,7.93
2023-09-13T02:53:43.333Z,9.32
2023-09-13T02:56:10.479Z,8.02
2023-09-13T02:58:38.525Z,8.80
2023-09-13T03:01:11.597Z,8.27
2023-09-13T03:03:41.088Z,8.70
2023-09-13T03:06:14.823Z,8.70
2023-09-13T03:08:43.018Z,9.02
2023-09-13T03:11:18.052Z,9.85
2023-09-13T03:13:45.660Z,9.00
2023-09-13T03:16:21.017Z,10.23
2023-09-13T03:18:50.335Z,8.98
2023-09-13T03:21:21.260Z,9.05
2023-09-13T03:23:52.526Z,8.68
2023-09-13T03:26:23.706Z,9.07
2023-09-13T03:28:54.044Z,8.30
2023-09-13T03:31:22.766Z,9.23
2023-09-13T03:33:51.045Z,8.85
2023-09-13T03:36:18.331Z,8.82
2023-09-13T03:38:49.166Z,9.00
2023-09-13T03:41:21.486Z,10.63
2023-09-13T03:43:48.793Z,9.25
2023-09-13T03:46:15.413Z,8.52
2023-09-13T03:48:42.616Z,9.23
2023-09-13T03:51:10.353Z,8.57
2023-09-13T03:53:37.634Z,8.40
2023-09-13T03:56:05.551Z,9.00
2023-09-13T03:58:35.263Z,9.02
2023-09-13T04:01:03.957Z,8.98
2023-09-13T04:03:30.868Z,7.40
2023-09-13T04:05:57.768Z,8.43
2023-09-13T04:08:24.519Z,9.50
2023-09-13T04:10:51.782Z,9.50
2023-09-13T04:13:19.513Z,7.95
2023-09-13T04:15:46.775Z,8.23
2023-09-13T04:18:14.301Z,8.65
2023-09-13T04:20:44.577Z,8.48
2023-09-13T04:23:11.130Z,9.02
2023-09-13T04:25:39.182Z,8.05
2023-09-13T04:28:08.144Z,8.40
2023-09-13T04:30:35.240Z,8.57
2023-09-13T04:33:03.201Z,7.90
2023-09-13T04:35:31.059Z,7.20
2023-09-13T04:37:58.472Z,9.07
2023-09-13T04:40:25.384Z,8.50
2023-09-13T04:43:16.349Z,7.65
2023-09-13T04:45:44.177Z,8.23
2023-09-13T04:48:11.781Z,6.63
2023-09-13T04:50:38.291Z,6.07
2023-09-13T04:53:04.989Z,8.50
2023-09-13T04:55:31.801Z,7.03
2023-09-13T04:57:58.631Z,8.13
2023-09-13T05:00:27.993Z,7.38
2023-09-13T05:02:54.833Z,6.93
2023-09-13T05:05:21.509Z,7.82
2023-09-13T05:07:47.992Z,6.93
2023-09-13T05:10:14.721Z,7.78
2023-09-13T05:12:41.433Z,6.75
2023-09-13T05:15:08.413Z,7.30
2023-09-13T05:17:34.981Z,6.82
2023-09-13T05:20:01.670Z,6.78
2023-09-13T05:22:28.264Z,7.28
2023-09-13T05:24:54.959Z,7.00
2023-09-13T05:27:21.478Z,8.55
2023-09-13T05:29:49.441Z,7.03
2023-09-13T05:32:16.071Z,8.27
2023-09-13T05:34:42.699Z,7.38
2023-09-13T05:37:09.252Z,6.85
2023-09-13T05:39:35.782Z,7.20
2023-09-13T05:42:03.597Z,6.97
2023-09-13T05:44:30.098Z,7.07
2023-09-13T05:46:56.815Z,6.18
2023-09-13T05:49:23.829Z,6.28
2023-09-13T05:51:51.076Z,5.90
2023-09-13T05:54:17.663Z,6.82
2023-09-13T05:56:44.923Z,6.30
2023-09-13T05:59:13.475Z,6.60
2023-09-13T06:01:40.430Z,6.70
2023-09-13T06:04:08.580Z,6.00
2023-09-13T06:06:36.161Z,6.40
2023-09-13T06:09:04.803Z,7.00
2023-09-13T06:11:32.719Z,6.85
2023-09-13T06:13:59.396Z,7.40
2023-09-13T06:16:26.238Z,7.78
2023-09-13T06:18:53.234Z,6.75
2023-09-13T06:21:19.784Z,7.70
2023-09-13T06:23:46.547Z,6.72
2023-09-13T06:26:13.887Z,6.50
2023-09-13T06:28:40.954Z,7.55
2023-09-13T06:31:08.355Z,7.35
2023-09-13T06:36:06.388Z,6.78
2023-09-13T06:38:34.604Z,7.30
2023-09-13T06:41:02.234Z,6.60
2023-09-13T06:46:05.166Z,6.75
2023-09-13T06:48:34.888Z,6.70
2023-09-13T06:51:44.160Z,6.38
2023-09-13T06:53:51.410Z,6.75
2023-09-13T06:56:20.440Z,5.72
2023-09-13T06:58:51.718Z,6.10
2023-09-13T07:03:54.605Z,6.32
2023-09-13T07:06:22.873Z,6.65
2023-09-13T07:08:49.530Z,7.25
2023-09-13T07:11:19.152Z,4.95
2023-09-13T07:13:45.804Z,5.35
2023-09-13T07:16:12.438Z,5.20
2023-09-13T07:18:39.013Z,6.05
2023-09-13T07:21:05.516Z,5.03
2023-09-13T07:23:32.087Z,4.68
2023-09-13T07:25:58.749Z,4.97
2023-09-13T07:28:25.614Z,4.90
2023-09-13T07:30:52.382Z,4.45
2023-09-13T07:33:18.975Z,4.78
2023-09-13T07:35:45.491Z,6.45
2023-09-13T07:38:12.208Z,5.90
2023-09-13T07:40:40.042Z,4.88
2023-09-13T07:43:09.925Z,4.78
2023-09-13T07:45:36.616Z,5.97
2023-09-13T07:48:04.216Z,5.63
2023-09-13T07:50:41.576Z,5.07
2023-09-13T07:53:12.192Z,5.93
2023-09-13T07:55:39.767Z,4.68
2023-09-13T07:58:08.036Z,4.90
2023-09-13T08:00:34.849Z,4.40
2023-09-13T08:03:02.529Z,4.68
2023-09-13T08:05:29.184Z,5.93
2023-09-13T08:07:56.129Z,4.28
2023-09-13T08:10:25.793Z,4.32
2023-09-13T08:12:53.346Z,4.75
2023-09-13T08:15:23.003Z,6.90
2023-09-13T08:17:57.436Z,4.82
2023-09-13T08:20:24.127Z,4.82
2023-09-13T08:22:50.768Z,6.88
2023-09-13T08:25:17.550Z,4.63
2023-09-13T08:27:44.747Z,5.65
2023-09-13T08:30:11.485Z,4.65
2023-09-13T08:32:38.522Z,5.80
2023-09-13T08:35:05.841Z,4.32
2023-09-13T08:37:32.626Z,5.60
2023-09-13T08:39:59.264Z,5.28
2023-09-13T08:42:29.438Z,5.82
2023-09-13T08:44:58.219Z,5.95
2023-09-13T08:47:31.527Z,4.38
2023-09-13T08:50:09.041Z,4.20
2023-09-13T08:52:38.808Z,7.43
2023-09-13T08:55:07.951Z,3.80
2023-09-13T08:57:36.425Z,5.72
2023-09-13T09:00:03.320Z,5.75
2023-09-13T09:02:33.110Z,3.80
2023-09-13T09:05:01.209Z,6.25
2023-09-13T09:07:28.944Z,4.63
2023-09-13T09:09:56.749Z,5.47
2023-09-13T09:12:25.463Z,4.00
2023-09-13T09:14:54.891Z,4.07
2023-09-13T09:17:23.827Z,4.22
2023-09-13T09:19:50.942Z,5.53
2023-09-13T09:22:19.172Z,4.13
2023-09-13T09:24:47.132Z,4.28
2023-09-13T09:27:14.181Z,6.53
2023-09-13T09:29:41.180Z,5.80
2023-09-13T09:32:09.875Z,4.85
2023-09-13T09:34:42.570Z,3.92
2023-09-13T09:37:10.157Z,3.67
2023-09-13T09:39:43.114Z,5.15
2023-09-13T09:42:17.004Z,4.95
2023-09-13T09:44:43.907Z,4.60
2023-09-13T09:47:14.322Z,4.22
2023-09-13T09:49:42.430Z,4.45
2023-09-13T09:52:09.104Z,3.65
2023-09-13T09:54:40.447Z,6.20
2023-09-13T09:57:07.507Z,7.10
2023-09-13T09:59:37.853Z,3.75
2023-09-13T10:02:04.992Z,3.33
2023-09-13T10:04:45.729Z,5.45
2023-09-13T10:07:12.501Z,3.55
2023-09-13T10:09:46.375Z,4.32
2023-09-13T10:12:14.465Z,4.78
2023-09-13T10:14:42.975Z,3.58
2023-09-13T10:17:12.992Z,3.97
2023-09-13T10:19:43.025Z,5.03
2023-09-13T10:22:13.813Z,3.60
2023-09-13T10:24:49.202Z,3.88
2023-09-13T10:27:18.560Z,3.58
2023-09-13T10:29:58.863Z,3.78
2023-09-13T10:32:47.212Z,4.53
2023-09-13T10:35:15.095Z,3.88
2023-09-13T10:37:56.590Z,5.32
2023-09-13T10:40:29.060Z,4.75
2023-09-13T10:42:55.735Z,5.03
2023-09-13T10:45:23.667Z,4.78
2023-09-13T10:47:51.904Z,4.22
2023-09-13T10:50:20.668Z,4.50
2023-09-13T10:52:49.613Z,4.07
2023-09-13T10:55:17.012Z,3.70
2023-09-13T10:57:44.517Z,4.13
2023-09-13T11:00:12.708Z,3.70
2023-09-13T11:02:41.582Z,3.50
2023-09-13T11:05:12.798Z,3.50
2023-09-13T11:07:47.579Z,4.82
2023-09-13T11:10:15.799Z,5.32
2023-09-13T11:12:50.113Z,3.38
2023-09-13T11:15:24.302Z,3.88
2023-09-13T11:17:55.528Z,3.30
2023-09-13T11:20:30.704Z,4.28
2023-09-13T11:26:04.068Z,4.07
2023-09-13T11:28:44.528Z,3.25
2023-09-13T11:31:14.985Z,2.83
2023-09-13T11:33:52.448Z,3.63
2023-09-13T11:36:19.600Z,2.95
2023-09-13T11:38:54.432Z,4.70
2023-09-13T11:41:21.394Z,3.13
2023-09-13T11:44:03.068Z,3.60
2023-09-13T11:46:34.093Z,3.88
2023-09-13T11:49:03.561Z,3.20
2023-09-13T11:54:18.954Z,3.55
2023-09-13T11:56:48.596Z,3.42
2023-09-13T11:59:18.769Z,3.47
2023-09-13T12:01:48.593Z,3.20
2023-09-13T12:06:50.085Z,3.10
2023-09-13T12:09:23.693Z,4.10
2023-09-13T12:11:57.425Z,3.17
2023-09-13T12:14:40.762Z,3.00
2023-09-13T12:17:14.953Z,4.00
2023-09-13T12:19:41.666Z,2.92
2023-09-13T12:22:13.303Z,3.80
2023-09-13T12:24:50.779Z,3.97
2023-09-13T12:27:17.436Z,3.05
2023-09-13T12:29:48.141Z,3.85
2023-09-13T12:32:16.202Z,2.92
2023-09-13T12:34:43.344Z,5.80
2023-09-13T12:37:10.035Z,3.17
2023-09-13T12:39:36.578Z,4.53
2023-09-13T12:42:09.386Z,3.83
2023-09-13T12:44:38.202Z,5.28
2023-09-13T12:47:05.701Z,4.25
2023-09-13T12:49:32.328Z,2.63
2023-09-13T12:51:59.035Z,2.38
2023-09-13T12:54:25.699Z,2.58
2023-09-13T12:56:52.308Z,2.90
2023-09-13T12:59:22.709Z,2.80
2023-09-13T13:01:55.412Z,3.20
2023-09-13T13:04:24.508Z,4.07
2023-09-13T13:07:00.894Z,2.58
2023-09-13T13:09:27.816Z,2.40
2023-09-13T13:11:54.859Z,3.30
2023-09-13T13:14:24.569Z,3.45
2023-09-13T13:16:59.935Z,2.50
2023-09-13T13:19:55.162Z,3.25
2023-09-13T13:22:25.042Z,2.70
2023-09-13T13:24:53.412Z,2.33
2023-09-13T13:27:20.501Z,2.60
2023-09-13T13:29:47.148Z,2.28
2023-09-13T13:32:13.657Z,2.45
2023-09-13T13:34:40.269Z,3.42
2023-09-13T13:37:06.775Z,1.98
2023-09-13T13:39:33.359Z,2.58
2023-09-13T13:41:59.986Z,2.55
2023-09-13T13:44:26.700Z,2.78
2023-09-13T13:46:53.256Z,3.35
2023-09-13T13:49:20.148Z,3.67
2023-09-13T13:51:50.655Z,2.25
2023-09-13T13:54:19.029Z,2.17
2023-09-13T13:56:46.043Z,3.08
2023-09-13T13:59:13.559Z,2.20
2023-09-13T14:01:40.573Z,3.88
2023-09-13T14:04:08.586Z,2.08
2023-09-13T14:06:35.327Z,2.20
2023-09-13T14:09:05.130Z,2.20
2023-09-13T14:11:32.010Z,3.58
2023-09-13T14:13:58.522Z,3.15
2023-09-13T14:16:25.046Z,3.20
2023-09-13T14:18:51.644Z,2.53
2023-09-13T14:21:18.219Z,2.35
2023-09-13T14:23:46.016Z,3.03
2023-09-13T14:26:12.904Z,3.50
2023-09-13T14:28:39.473Z,2.13
2023-09-13T14:31:13.027Z,5.55
2023-09-13T14:33:43.422Z,2.50
2023-09-13T14:36:10.992Z,2.10
2023-09-13T14:38:37.752Z,2.95
2023-09-13T14:41:04.272Z,2.20
2023-09-13T14:43:30.776Z,2.20
2023-09-13T14:45:57.439Z,2.72
2023-09-13T14:48:24.164Z,2.53
2023-09-13T14:50:50.652Z,3.00
2023-09-13T14:53:17.160Z,2.78
2023-09-13T14:55:43.706Z,2.38
2023-09-13T14:58:10.355Z,4.18
2023-09-13T15:00:36.937Z,2.45
2023-09-13T15:03:04.673Z,2.45
2023-09-13T15:05:31.334Z,2.75
2023-09-13T15:07:57.801Z,2.85
2023-09-13T15:10:24.684Z,3.03
2023-09-13T15:12:51.288Z,2.45
2023-09-13T15:15:18.132Z,3.83
2023-09-13T15:17:44.991Z,5.03
2023-09-13T15:20:11.749Z,2.13
2023-09-13T15:22:38.336Z,3.75
2023-09-13T15:25:05.219Z,2.50
2023-09-13T15:27:31.833Z,2.00
2023-09-13T15:29:58.653Z,2.78
2023-09-13T15:32:25.361Z,3.20
2023-09-13T15:34:52.067Z,4.05
2023-09-13T15:37:18.576Z,2.22
2023-09-13T15:39:45.698Z,2.65
2023-09-13T15:42:12.423Z,2.22
2023-09-13T15:44:38.993Z,2.67
2023-09-13T15:47:05.614Z,3.83
2023-09-13T15:49:32.402Z,2.33
2023-09-13T15:51:59.000Z,1.95
2023-09-13T15:54:26.421Z,3.00
2023-09-13T15:56:53.375Z,4.10
2023-09-13T15:59:19.882Z,3.47
2023-09-13T16:01:46.449Z,1.92
2023-09-13T16:04:13.046Z,3.42
2023-09-13T16:06:40.005Z,2.90
2023-09-13T16:09:07.201Z,1.55
2023-09-13T16:11:35.441Z,2.85
2023-09-13T16:14:02.543Z,2.13
2023-09-13T16:16:32.177Z,3.00
2023-09-13T16:18:58.890Z,3.58
2023-09-13T16:21:26.954Z,1.80
2023-09-13T16:23:53.865Z,3.83
2023-09-13T16:26:21.517Z,2.60
2023-09-13T16:28:48.238Z,4.00
2023-09-13T16:31:14.924Z,2.45
2023-09-13T16:33:41.549Z,2.20
2023-09-13T16:36:08.078Z,2.55
2023-09-13T16:38:34.762Z,2.65
2023-09-13T16:41:01.372Z,2.80
2023-09-13T16:43:27.807Z,2.90
2023-09-13T16:45:54.427Z,1.80
2023-09-13T16:48:33.675Z,2.22
2023-09-13T16:51:01.681Z,3.35
2023-09-13T16:53:28.167Z,2.17
2023-09-13T16:55:55.002Z,3.08
2023-09-13T16:58:21.652Z,2.97
2023-09-13T17:00:49.826Z,2.63
2023-09-13T17:03:16.924Z,2.25
2023-09-13T17:05:43.828Z,2.33
2023-09-13T17:08:10.325Z,2.83
2023-09-13T17:10:36.971Z,3.13
2023-09-13T17:13:03.964Z,2.45
2023-09-13T17:15:30.626Z,2.25
2023-09-13T17:17:57.196Z,2.70
2023-09-13T17:20:23.979Z,1.92
2023-09-13T17:22:50.526Z,2.20
2023-09-13T17:25:17.134Z,2.60
2023-09-13T17:27:43.890Z,2.15
2023-09-13T17:30:10.748Z,2.58
2023-09-13T17:32:37.277Z,2.50
2023-09-13T17:35:04.038Z,2.28
2023-09-13T17:37:30.577Z,2.08
2023-09-13T17:39:57.582Z,3.45
2023-09-13T17:42:24.666Z,3.17
2023-09-13T17:44:52.176Z,2.88
2023-09-13T17:47:22.291Z,2.67
2023-09-13T17:49:49.902Z,2.58
2023-09-13T17:52:18.074Z,3.35
2023-09-13T17:54:44.728Z,2.40
2023-09-13T17:57:11.309Z,3.10
2023-09-13T17:59:38.803Z,2.63
2023-09-13T18:02:06.072Z,3.10
2023-09-13T18:04:32.898Z,2.17
2023-09-13T18:06:59.618Z,2.30
2023-09-13T18:09:26.305Z,2.80
2023-09-13T18:11:54.753Z,2.25
2023-09-13T18:14:21.871Z,3.53
2023-09-13T18:16:48.695Z,2.63
2023-09-13T18:19:17.235Z,3.38
2023-09-13T18:21:43.873Z,4.43
2023-09-13T18:24:10.379Z,2.60
2023-09-13T18:26:36.992Z,2.17
2023-09-13T18:29:03.909Z,2.35
2023-09-13T18:31:30.547Z,4.47
2023-09-13T18:33:57.329Z,2.70
2023-09-13T18:36:23.964Z,3.15
2023-09-13T18:38:51.391Z,2.72
2023-09-13T18:41:18.161Z,2.78
2023-09-13T18:43:44.788Z,4.63
2023-09-13T18:46:13.149Z,4.78
2023-09-13T18:48:39.980Z,4.70
2023-09-13T18:51:06.855Z,4.30
2023-09-13T18:53:34.487Z,5.18
2023-09-13T18:56:01.234Z,5.10
2023-09-13T18:58:28.989Z,3.35
2023-09-13T19:01:00.366Z,2.80
2023-09-13T19:03:28.448Z,4.45
2023-09-13T19:05:59.559Z,2.90
2023-09-13T19:08:28.764Z,3.17
2023-09-13T19:10:56.194Z,2.90
2023-09-13T19:13:23.051Z,4.75
2023-09-13T19:16:05.119Z,4.97
2023-09-13T19:18:33.802Z,3.65
2023-09-13T19:21:01.152Z,6.07
2023-09-13T19:23:30.953Z,4.25
2023-09-13T19:26:00.214Z,3.97
2023-09-13T19:28:29.434Z,4.25
2023-09-13T19:30:59.527Z,4.80
2023-09-13T19:33:27.906Z,5.63
2023-09-13T19:35:59.543Z,3.97
2023-09-13T19:38:30.389Z,5.50
2023-09-13T19:40:58.196Z,4.88
2023-09-13T19:43:26.358Z,5.00
2023-09-13T19:46:00.245Z,4.10
2023-09-13T19:48:27.920Z,4.57
2023-09-13T19:50:58.053Z,4.80
2023-09-13T19:53:26.056Z,4.53
2023-09-13T19:55:52.824Z,6.53
2023-09-13T19:58:19.717Z,5.10
2023-09-13T20:00:48.441Z,7.13
2023-09-13T20:03:15.630Z,8.38
2023-09-13T20:05:42.575Z,8.85
2023-09-13T20:08:09.947Z,9.60
2023-09-13T20:10:36.549Z,9.88
2023-09-13T20:13:04.536Z,10.13
2023-09-13T20:15:31.386Z,9.88
2023-09-13T20:17:59.497Z,10.93
2023-09-13T20:20:27.754Z,10.57
2023-09-13T20:22:54.929Z,10.38
2023-09-13T20:25:21.879Z,11.20
2023-09-13T20:27:48.718Z,11.15
2023-09-13T20:30:15.432Z,10.05
2023-09-13T20:32:42.831Z,10.68
2023-09-13T20:35:09.678Z,11.15
2023-09-13T20:37:36.276Z,10.38
2023-09-13T20:40:05.229Z,9.82
2023-09-13T20:42:31.948Z,10.63
2023-09-13T20:44:58.636Z,10.70
2023-09-13T20:47:25.132Z,10.65
2023-09-13T20:49:51.614Z,10.80
2023-09-13T20:52:21.520Z,9.95
2023-09-13T20:54:48.431Z,10.18
2023-09-13T20:57:14.945Z,9.45
2023-09-13T20:59:42.236Z,8.68
2023-09-13T21:02:08.792Z,8.88
2023-09-13T21:04:35.894Z,8.85
2023-09-13T21:07:05.054Z,8.95
2023-09-13T21:09:31.808Z,9.00
2023-09-13T21:11:58.416Z,8.77
2023-09-13T21:14:24.914Z,8.68
2023-09-13T21:16:51.473Z,9.15
2023-09-13T21:19:19.281Z,8.75
2023-09-13T21:21:46.106Z,9.15
2023-09-13T21:24:13.036Z,9.38
2023-09-13T21:26:42.265Z,9.20
2023-09-13T21:29:09.080Z,8.70
2023-09-13T21:31:36.754Z,8.65
2023-09-13T21:34:03.698Z,8.75
2023-09-13T21:36:30.306Z,8.00
2023-09-13T21:38:56.897Z,8.30
2023-09-13T21:41:24.201Z,7.88
2023-09-13T21:43:50.764Z,8.77
2023-09-13T21:46:17.315Z,8.95
2023-09-13T21:48:44.963Z,9.05
2023-09-13T21:51:12.647Z,9.23
2023-09-13T21:53:39.973Z,9.23
2023-09-13T21:56:08.716Z,8.98
2023-09-13T21:58:35.664Z,8.43
2023-09-13T22:01:02.700Z,9.00
2023-09-13T22:03:30.639Z,8.82
2023-09-13T22:05:57.429Z,8.98
2023-09-13T22:08:23.973Z,8.88
2023-09-13T22:11:01.571Z,9.50
2023-09-13T22:13:28.747Z,8.88
2023-09-13T22:15:55.578Z,9.77
2023-09-13T22:18:22.139Z,9.70
2023-09-13T22:20:50.072Z,9.02
2023-09-13T22:23:18.651Z,9.43
2023-09-13T22:25:45.786Z,9.25
2023-09-13T22:28:12.310Z,9.50
2023-09-13T22:30:41.967Z,8.55
2023-09-13T22:33:08.718Z,8.57
2023-09-13T22:35:35.426Z,8.32
2023-09-13T22:38:02.452Z,8.77
2023-09-13T22:40:29.288Z,7.63
2023-09-13T22:42:55.850Z,7.13
2023-09-13T22:45:22.603Z,6.32
2023-09-13T22:47:49.277Z,6.00
2023-09-13T22:50:15.878Z,6.00
2023-09-13T22:52:42.765Z,7.32
2023-09-13T22:55:09.429Z,5.53
2023-09-13T22:57:36.147Z,6.57
2023-09-13T23:00:04.539Z,5.90
2023-09-13T23:02:32.248Z,5.65
2023-09-13T23:04:58.849Z,6.32
2023-09-13T23:07:25.876Z,5.28
2023-09-13T23:09:52.346Z,5.35
2023-09-13T23:12:19.026Z,4.93
2023-09-13T23:14:45.522Z,4.57
2023-09-13T23:17:12.740Z,5.38
2023-09-13T23:19:39.317Z,5.15
2023-09-13T23:22:06.078Z,4.70
2023-09-13T23:24:35.945Z,4.30
2023-09-13T23:27:03.729Z,5.55
2023-09-13T23:29:30.730Z,4.90
2023-09-13T23:31:58.992Z,5.60
2023-09-13T23:34:25.687Z,4.50
2023-09-13T23:36:52.988Z,5.13
2023-09-13T23:39:19.565Z,4.70
2023-09-13T23:41:46.513Z,4.63
2023-09-13T23:44:14.788Z,4.45
2023-09-13T23:46:41.423Z,5.43
2023-09-13T23:49:09.126Z,5.57
2023-09-13T23:51:36.054Z,4.47
2023-09-13T23:54:02.543Z,4.78
2023-09-13T23:56:29.036Z,5.00
2023-09-13T23:58:57.387Z,4.10
